Weather at Rimouski (Hydro-Québec) Heliport [CLOSED]

Public forecast

Using degrees Celsius for public forecast. Weather courtesy of forecast.io.

Closest aviation weather report (METAR) to Rimouski (Hydro-Québec) Heliport

Closest report is Mont Joli Airport, 16.7 nm (30.9 km) NE. Retrieved 2020/12/02 14:00 UTC (36 minutes ago):

CYYY 021400Z 17010G20KT 30SM SCT120 BKN220 08/02 A2975 RMK AC4CI3 SLP077

Closest aviation forecast (TAF) to Rimouski (Hydro-Québec) Heliport

Closest forecast is Mont Joli Airport, 16.7 nm (30.9 km) NE. Retrieved 2020/12/02 14:00 UTC (36 minutes ago):

TAF CYYY 021338Z 0214/0302 17012G22KT P6SM BKN030 OVC100 TEMPO 0214/0219 SCT020 BKN100 FM021900 18012KT P6SM SCT030 TEMPO 0219/0302 BKN030 RMK NXT FCST BY 022000Z